Time;durP1;ratioP1;P1;durP2;ratioP2;P2;SDS_P1;SDS_P2;PMS_P1;PMS_P2;Temp;Humidity;BMP_temperature;BMP_pressure;BME280_temperature;BME280_humidity;BME280_pressure;Samples;Min_cycle;Max_cycle;Signal;HPM_P1;HPM_P2
2023/07/21 00:03:41;;;;;;;3.33;0.93;;;;;;;15.97;77.84;99485.22;10528801;28;20041;-75
2023/07/21 00:08:43;;;;;;;1.48;0.68;;;;;;;16.10;78.34;99476.91;10528427;28;20051;-75
2023/07/21 00:13:46;;;;;;;1.42;0.60;;;;;;;16.57;76.68;99475.25;10528079;28;20055;-74
2023/07/21 00:18:48;;;;;;;3.28;0.77;;;;;;;16.43;76.80;99469.25;10510305;28;20132;-74
2023/07/21 00:23:51;;;;;;;2.00;0.75;;;;;;;16.30;77.69;99464.88;10528357;28;20529;-74
2023/07/21 00:28:53;;;;;;;1.42;0.90;;;;;;;16.02;78.49;99466.78;10527790;28;20048;-74
2023/07/21 00:33:55;;;;;;;1.83;0.73;;;;;;;15.77;79.94;99463.97;10480136;28;20049;-74
2023/07/21 00:38:58;;;;;;;3.53;1.05;;;;;;;15.72;80.61;99461.44;10527309;28;20134;-74
2023/07/21 00:44:01;;;;;;;3.42;0.93;;;;;;;15.82;81.13;99460.19;10526407;28;20036;-74
2023/07/21 00:49:03;;;;;;;1.13;0.60;;;;;;;16.14;79.19;99461.22;10526359;28;20128;-75
2023/07/21 00:54:05;;;;;;;2.35;0.65;;;;;;;15.98;79.73;99452.81;10490943;28;20435;-75
2023/07/21 00:59:07;;;;;;;1.50;0.77;;;;;;;16.35;78.41;99452.78;10508230;28;20048;-75
2023/07/21 01:04:10;;;;;;;1.30;0.70;;;;;;;16.23;78.31;99451.66;10508514;28;20036;-75
2023/07/21 01:09:12;;;;;;;1.13;0.70;;;;;;;16.65;76.99;99459.63;10507749;28;20037;-75
2023/07/21 01:14:14;;;;;;;1.65;0.82;;;;;;;16.15;78.57;99454.56;10478236;28;20044;-75
2023/07/21 01:19:17;;;;;;;2.03;0.70;;;;;;;15.77;80.38;99457.63;10525377;28;20095;-75
2023/07/21 01:24:29;;;;;;;0.82;0.80;;;;;;;15.60;81.77;99456.69;10534109;28;20503;-75
2023/07/21 01:29:34;;;;;;;3.10;0.88;;;;;;;15.59;81.98;99463.38;10516954;28;20051;-75
2023/07/21 01:34:37;;;;;;;4.85;0.90;;;;;;;15.89;80.52;99463.19;10534454;28;20534;-75
2023/07/21 01:39:40;;;;;;;1.13;0.60;;;;;;;15.74;81.02;99466.63;10515915;28;20048;-75
2023/07/21 01:44:43;;;;;;;5.80;0.80;;;;;;;16.02;80.36;99461.22;10496207;28;20048;-75
2023/07/21 01:49:45;;;;;;;0.75;0.70;;;;;;;15.97;79.99;99474.16;10515648;28;20521;-75
2023/07/21 01:54:52;;;;;;;2.72;0.80;;;;;;;15.76;80.77;99462.34;10532929;28;20522;-75
2023/07/21 01:59:55;;;;;;;0.95;0.70;;;;;;;15.57;81.27;99470.38;10515126;28;20040;-75
2023/07/21 02:04:57;;;;;;;1.58;0.80;;;;;;;15.81;81.18;99469.66;10498450;28;20461;-75
2023/07/21 02:09:59;;;;;;;0.65;0.40;;;;;;;15.91;79.11;99469.97;10532570;28;20036;-75
2023/07/21 02:15:01;;;;;;;2.03;0.70;;;;;;;16.02;79.99;99464.81;10532841;28;20048;-75
2023/07/21 02:20:08;;;;;;;1.83;0.70;;;;;;;16.11;79.00;99467.44;10514083;28;20049;-75
2023/07/21 02:25:10;;;;;;;1.67;1.13;;;;;;;16.47;77.56;99470.16;10497746;28;20053;-74
2023/07/21 02:30:12;;;;;;;1.60;0.70;;;;;;;16.58;77.04;99465.78;10531239;28;20040;-73
2023/07/21 02:35:14;;;;;;;1.25;0.80;;;;;;;16.34;77.74;99465.81;10512940;28;20499;-75
2023/07/21 02:40:17;;;;;;;1.00;0.70;;;;;;;16.84;75.43;99472.91;10531412;28;20040;-74
2023/07/21 02:45:19;;;;;;;0.90;0.60;;;;;;;16.97;75.04;99479.19;10531609;28;20041;-74
2023/07/21 02:50:23;;;;;;;1.30;0.65;;;;;;;17.94;71.56;99475.91;10514154;28;20080;-74
2023/07/21 02:55:25;;;;;;;1.80;0.75;;;;;;;18.89;67.43;99479.28;10530704;28;20422;-74
2023/07/21 03:00:28;;;;;;;2.22;0.80;;;;;;;19.02;66.14;99476.38;10512625;28;20059;-74
2023/07/21 03:05:41;;;;;;;0.63;0.63;;;;;;;20.03;62.28;99478.69;10512769;28;20392;-74
2023/07/21 03:10:43;;;;;;;1.48;0.80;;;;;;;19.63;62.59;99475.59;10512255;28;20047;-74
2023/07/21 03:15:47;;;;;;;1.85;0.80;;;;;;;19.93;61.87;99473.72;10512786;28;20037;-74
2023/07/21 03:20:57;;;;;;;;;;;;;;;20.27;60.36;99479.44;10512610;28;20533;-75
2023/07/21 03:26:00;;;;;;;0.70;0.60;;;;;;;20.76;58.37;99473.81;10494698;28;19920;-75
2023/07/21 03:31:09;;;;;;;0.97;0.70;;;;;;;20.63;58.08;99473.25;10512431;28;20529;-73
2023/07/21 03:36:21;;;;;;;1.20;0.47;;;;;;;20.89;57.58;99480.78;10511612;28;20067;-73
2023/07/21 03:41:23;;;;;;;1.45;0.70;;;;;;;21.07;56.91;99475.44;10476586;28;20056;-75
2023/07/21 03:46:26;;;;;;;0.98;0.70;;;;;;;21.43;56.46;99481.44;10495123;28;20045;-75
2023/07/21 03:51:49;;;;;;;0.80;0.60;;;;;;;21.61;55.26;99471.25;10508804;28;20045;-75
2023/07/21 03:56:51;;;;;;;2.38;0.77;;;;;;;21.57;55.26;99474.03;10511384;28;20044;-75
2023/07/21 04:01:53;;;;;;;0.95;0.80;;;;;;;21.46;55.77;99486.25;10510986;28;20538;-75
2023/07/21 04:06:56;;;;;;;0.82;0.65;;;;;;;21.68;56.19;99485.28;10510477;28;20043;-75
2023/07/21 04:11:58;;;;;;;1.02;0.63;;;;;;;23.63;51.56;99476.53;10510854;28;20055;-75
2023/07/21 04:17:00;;;;;;;0.75;0.73;;;;;;;23.31;51.67;99476.44;10509482;28;20032;-75
2023/07/21 04:22:02;;;;;;;1.40;0.60;;;;;;;23.17;51.28;99482.78;10527499;28;20048;-73
2023/07/21 04:27:04;;;;;;;0.47;0.43;;;;;;;23.29;51.17;99476.03;10508911;28;20041;-75
2023/07/21 04:32:08;;;;;;;1.60;0.60;;;;;;;23.90;48.38;99472.16;10510011;28;20047;-75
2023/07/21 04:37:13;;;;;;;2.88;0.80;;;;;;;22.26;51.83;99479.84;10509133;28;20507;-75
2023/07/21 04:42:16;;;;;;;0.73;0.70;;;;;;;22.85;50.43;99482.63;10525714;28;20466;-75
2023/07/21 04:47:19;;;;;;;2.45;0.70;;;;;;;23.49;48.67;99476.47;10509854;28;20552;-74
2023/07/21 04:52:37;;;;;;;0.95;0.77;;;;;;;24.15;47.90;99476.97;10494608;28;20148;-75
2023/07/21 04:57:39;;;;;;;1.98;0.70;;;;;;;23.78;49.20;99469.75;10508909;28;20052;-75
2023/07/21 05:02:41;;;;;;;0.85;0.68;;;;;;;24.61;46.54;99477.72;10509232;28;20044;-75
2023/07/21 05:07:44;;;;;;;1.13;0.60;;;;;;;23.61;48.28;99467.75;10509285;28;20067;-75
2023/07/21 05:12:46;;;;;;;1.20;0.70;;;;;;;23.18;48.50;99478.78;10508973;28;20060;-75
2023/07/21 05:18:09;;;;;;;1.15;0.55;;;;;;;23.66;47.27;99475.75;10511612;28;20045;-75
2023/07/21 05:23:31;;;;;;;0.50;0.40;;;;;;;22.66;50.05;99480.09;10527516;28;20533;-75
2023/07/21 05:28:38;;;;;;;1.20;0.60;;;;;;;23.62;47.80;99483.34;10509086;28;20063;-74
2023/07/21 05:33:41;;;;;;;0.47;0.45;;;;;;;23.02;49.54;99481.09;10508528;28;20052;-75
2023/07/21 05:38:44;;;;;;;1.17;0.65;;;;;;;22.10;50.43;99486.91;10512288;28;20048;-75
2023/07/21 05:43:47;;;;;;;0.52;0.50;;;;;;;23.53;46.48;99478.06;10507504;28;20418;-74
2023/07/21 05:48:49;;;;;;;1.95;0.60;;;;;;;22.59;48.93;99482.88;10511980;28;20036;-74
2023/07/21 05:53:52;;;;;;;1.85;0.60;;;;;;;22.78;49.13;99474.19;10507281;28;20040;-75
2023/07/21 05:58:58;;;;;;;1.27;0.73;;;;;;;23.07;49.17;99487.13;10508468;28;20052;-75
2023/07/21 06:04:00;;;;;;;1.45;0.70;;;;;;;21.45;53.05;99479.88;10507205;28;20055;-75
2023/07/21 06:09:03;;;;;;;3.70;0.90;;;;;;;22.06;51.68;99484.09;10513184;28;20048;-75
2023/07/21 06:14:19;;;;;;;0.80;0.60;;;;;;;22.40;50.91;99475.56;10480895;28;20443;-75
2023/07/21 06:19:46;;;;;;;3.00;0.80;;;;;;;23.36;48.47;99481.63;10492793;28;20052;-75
2023/07/21 06:24:48;;;;;;;1.92;0.70;;;;;;;23.06;49.25;99479.91;10533227;28;20044;-75
2023/07/21 06:29:50;;;;;;;1.40;0.70;;;;;;;22.08;50.45;99490.09;10515484;28;20041;-75
2023/07/21 06:34:59;;;;;;;0.93;0.88;;;;;;;21.88;50.71;99486.69;10514939;28;20051;-75
2023/07/21 06:40:20;;;;;;;0.90;0.90;;;;;;;21.19;52.41;99489.13;10532561;28;20475;-75
2023/07/21 06:45:39;;;;;;;1.38;0.70;;;;;;;23.68;47.82;99490.94;10514624;28;20046;-75
2023/07/21 06:50:58;;;;;;;2.65;0.77;;;;;;;24.75;44.41;99484.50;10551298;28;20032;-75
2023/07/21 06:56:00;;;;;;;1.17;0.60;;;;;;;23.09;47.55;99487.56;10574425;28;20039;-75
2023/07/21 07:01:03;;;;;;;2.72;1.00;;;;;;;23.73;47.21;99493.34;10573688;28;20036;-75
2023/07/21 07:06:05;;;;;;;0.82;0.70;;;;;;;22.86;49.09;99499.00;10573863;28;20039;-75
2023/07/21 07:11:08;;;;;;;2.80;1.08;;;;;;;22.98;48.89;99497.88;10555542;28;20048;-75
2023/07/21 07:16:11;;;;;;;1.83;0.95;;;;;;;23.10;50.04;99491.16;10572613;28;20514;-75
2023/07/21 07:21:14;;;;;;;3.42;0.90;;;;;;;23.50;48.04;99498.47;10572303;28;20035;-75
2023/07/21 07:26:17;;;;;;;1.65;1.05;;;;;;;23.57;47.29;99501.31;10554836;28;20036;-75
2023/07/21 07:31:19;;;;;;;3.50;0.95;;;;;;;24.91;44.11;99508.13;10572520;28;20048;-75
2023/07/21 07:36:21;;;;;;;1.58;0.70;;;;;;;23.24;47.16;99513.56;10572385;28;20036;-75
2023/07/21 07:41:23;;;;;;;1.40;0.70;;;;;;;24.44;43.49;99509.41;10571209;28;20081;-75
2023/07/21 07:46:25;;;;;;;0.80;0.77;;;;;;;25.29;43.14;99508.41;10572744;28;20051;-75
2023/07/21 07:51:29;;;;;;;2.13;1.00;;;;;;;25.19;42.79;99512.06;10571854;28;20051;-75
2023/07/21 07:56:31;;;;;;;1.20;0.90;;;;;;;25.58;41.80;99509.06;10571861;28;20043;-75
2023/07/21 08:01:34;;;;;;;3.33;1.05;;;;;;;24.62;43.45;99521.41;10562068;28;20056;-75
2023/07/21 08:06:36;;;;;;;3.85;0.80;;;;;;;23.15;43.65;99522.34;10533065;28;20036;-75
2023/07/21 08:11:38;;;;;;;1.50;0.70;;;;;;;23.00;43.42;99531.88;10529005;28;20048;-75
2023/07/21 08:16:40;;;;;;;2.33;1.20;;;;;;;23.99;42.48;99511.00;10510830;28;20052;-75
2023/07/21 08:21:42;;;;;;;3.60;0.98;;;;;;;24.81;39.84;99531.38;10528413;28;20051;-75
2023/07/21 08:26:44;;;;;;;0.47;0.47;;;;;;;24.80;40.24;99538.19;10527895;28;20059;-74
2023/07/21 08:31:47;;;;;;;1.98;0.70;;;;;;;24.83;38.73;99525.41;10527424;28;20040;-74
2023/07/21 08:36:49;;;;;;;2.90;0.63;;;;;;;24.51;38.93;99528.25;10528081;28;20078;-74
2023/07/21 08:41:53;;;;;;;0.60;0.60;;;;;;;23.87;37.11;99539.41;10509602;28;20044;-74
2023/07/21 08:46:56;;;;;;;3.03;0.73;;;;;;;24.18;38.09;99530.22;10510224;28;20047;-75
2023/07/21 08:51:58;;;;;;;0.85;0.85;;;;;;;24.77;38.98;99539.00;10527378;28;20534;-74
2023/07/21 08:57:00;;;;;;;0.47;0.40;;;;;;;25.18;37.73;99541.34;10527271;28;20075;-74
2023/07/21 09:02:03;;;;;;;3.38;0.73;;;;;;;25.39;38.01;99558.13;10501114;28;20057;-74
2023/07/21 09:07:05;;;;;;;4.07;0.73;;;;;;;25.77;37.94;99535.88;10492312;28;20410;-74
2023/07/21 09:12:08;;;;;;;2.80;1.00;;;;;;;24.78;36.69;99556.66;10527315;28;20043;-74
2023/07/21 09:17:12;;;;;;;4.03;1.48;;;;;;;23.20;41.31;99556.75;10509219;28;20057;-74
2023/07/21 09:22:14;;;;;;;1.10;0.68;;;;;;;23.37;41.01;99558.81;10509646;28;20415;-74
2023/07/21 09:27:18;;;;;;;2.10;1.00;;;;;;;24.49;40.55;99553.09;10526736;28;20040;-74
2023/07/21 09:32:21;;;;;;;1.67;1.00;;;;;;;23.54;42.60;99554.50;10508361;28;20506;-74
2023/07/21 09:37:26;;;;;;;2.15;0.70;;;;;;;21.62;44.08;99567.78;10529730;28;20055;-74
2023/07/21 09:42:29;;;;;;;2.60;1.15;;;;;;;20.92;42.94;99551.72;10528476;28;20048;-74
2023/07/21 09:47:31;;;;;;;4.85;1.60;;;;;;;20.69;45.86;99563.75;10534644;28;20041;-74
2023/07/21 09:52:39;;;;;;;2.63;1.45;;;;;;;20.76;47.42;99558.28;10515987;28;20053;-74
2023/07/21 09:57:44;;;;;;;2.42;0.93;;;;;;;20.71;47.86;99555.81;10516347;28;20048;-74
2023/07/21 10:02:48;;;;;;;4.38;0.70;;;;;;;20.99;46.63;99557.38;10533835;28;20052;-75
2023/07/21 10:07:54;;;;;;;2.90;1.35;;;;;;;20.80;47.72;99565.88;10534305;28;20065;-74
2023/07/21 10:13:03;;;;;;;1.57;0.93;;;;;;;20.62;49.33;99566.41;10499654;28;20051;-75
2023/07/21 10:18:14;;;;;;;2.17;0.80;;;;;;;20.63;51.06;99576.38;10515420;28;20040;-74
2023/07/21 10:23:18;;;;;;;1.80;0.80;;;;;;;20.75;51.69;99576.19;10519737;28;20510;-75
2023/07/21 10:28:30;;;;;;;0.77;0.65;;;;;;;20.86;52.13;99569.97;10515327;28;20414;-74
2023/07/21 10:33:32;;;;;;;7.05;1.08;;;;;;;21.09;49.86;99579.06;10533402;28;20064;-74
2023/07/21 10:38:40;;;;;;;1.33;0.70;;;;;;;20.52;49.34;99586.56;10532377;28;20053;-75
2023/07/21 10:43:42;;;;;;;2.45;0.85;;;;;;;20.54;50.25;99575.06;10532148;28;20427;-74
2023/07/21 10:48:44;;;;;;;1.88;0.90;;;;;;;20.66;50.78;99586.81;10532407;28;20036;-74
2023/07/21 10:53:46;;;;;;;1.60;0.70;;;;;;;20.60;51.36;99574.34;10531193;28;20049;-74
2023/07/21 10:58:49;;;;;;;2.05;1.15;;;;;;;20.69;52.10;99566.53;10531764;28;20059;-74
2023/07/21 11:03:51;;;;;;;4.00;0.90;;;;;;;20.62;48.87;99579.53;10532101;28;20070;-74
2023/07/21 11:08:53;;;;;;;1.27;0.70;;;;;;;20.78;49.99;99585.78;10531726;28;20040;-74
2023/07/21 11:13:55;;;;;;;2.38;0.80;;;;;;;21.10;48.86;99583.44;10531020;28;20407;-74
2023/07/21 11:18:57;;;;;;;0.93;0.75;;;;;;;20.43;50.15;99594.38;10530830;28;20047;-74
2023/07/21 11:24:03;;;;;;;2.25;0.60;;;;;;;20.25;50.58;99593.25;10530803;28;20036;-74
2023/07/21 11:29:06;;;;;;;2.92;1.38;;;;;;;20.15;52.69;99592.69;10512753;28;20040;-74
2023/07/21 11:34:20;;;;;;;4.43;0.90;;;;;;;20.29;51.50;99594.09;10512790;28;20036;-74
2023/07/21 11:39:22;;;;;;;5.22;0.85;;;;;;;20.14;50.28;99590.28;10516518;28;20048;-74
2023/07/21 11:44:25;;;;;;;3.40;1.00;;;;;;;20.06;51.46;99596.88;10512945;28;20041;-74
2023/07/21 11:49:28;;;;;;;3.15;0.80;;;;;;;20.34;50.22;99591.03;10511525;28;20048;-74
2023/07/21 11:54:41;;;;;;;3.45;1.00;;;;;;;20.26;51.45;99580.91;10529948;28;20106;-74
2023/07/21 11:59:43;;;;;;;0.93;0.52;;;;;;;20.20;51.14;99587.97;10529446;28;20044;-74
2023/07/21 12:04:45;;;;;;;0.77;0.70;;;;;;;20.06;52.14;99594.91;10529272;28;20067;-74
2023/07/21 12:09:48;;;;;;;4.07;0.90;;;;;;;20.43;51.61;99591.59;10511787;28;20036;-74
2023/07/21 12:14:50;;;;;;;2.60;1.00;;;;;;;20.70;52.11;99590.44;10528466;28;20422;-74
2023/07/21 12:19:53;;;;;;;2.13;0.85;;;;;;;20.54;53.63;99598.16;10529152;28;20067;-74
2023/07/21 12:24:56;;;;;;;3.03;0.80;;;;;;;20.39;51.96;99597.06;10528450;28;20083;-74
2023/07/21 12:29:58;;;;;;;2.70;0.70;;;;;;;20.41;51.41;99588.38;10528018;28;20051;-74
2023/07/21 12:35:00;;;;;;;2.05;1.00;;;;;;;20.44;51.77;99587.63;10528040;28;20503;-74
2023/07/21 12:40:05;;;;;;;2.13;0.90;;;;;;;20.01;51.57;99592.44;10527785;28;20056;-74
2023/07/21 12:45:08;;;;;;;1.33;0.90;;;;;;;19.83;52.32;99602.44;10527517;28;20633;-74
2023/07/21 12:50:10;;;;;;;3.38;1.20;;;;;;;19.98;53.29;99600.72;10527626;28;20055;-74
2023/07/21 12:55:12;;;;;;;2.20;1.10;;;;;;;19.84;55.63;99609.59;10509518;28;20058;-74
2023/07/21 13:00:16;;;;;;;1.70;0.90;;;;;;;20.25;54.03;99607.16;10524359;28;20043;-74
2023/07/21 13:05:18;;;;;;;2.63;1.10;;;;;;;20.43;53.47;99609.13;10508228;28;20041;-74
2023/07/21 13:10:20;;;;;;;3.83;1.02;;;;;;;20.42;51.74;99612.28;10527420;28;20078;-74
2023/07/21 13:15:22;;;;;;;2.65;1.20;;;;;;;20.26;52.75;99608.78;10527050;28;20044;-74
2023/07/21 13:20:24;;;;;;;6.85;1.70;;;;;;;20.28;52.89;99596.06;10526533;28;20059;-74
2023/07/21 13:25:26;;;;;;;4.28;1.25;;;;;;;20.33;52.08;99606.94;10530262;28;20044;-74
2023/07/21 13:30:29;;;;;;;1.98;0.82;;;;;;;20.22;50.97;99602.34;10526551;28;20055;-74
2023/07/21 13:35:31;;;;;;;1.80;0.90;;;;;;;20.11;51.25;99608.50;10533427;28;20056;-74
2023/07/21 13:40:33;;;;;;;2.72;0.70;;;;;;;19.95;48.80;99595.88;10526449;28;20040;-74
2023/07/21 13:45:35;;;;;;;3.95;0.90;;;;;;;19.96;50.05;99597.47;10526382;28;20040;-74
2023/07/21 13:50:37;;;;;;;1.48;0.70;;;;;;;20.18;51.48;99596.72;10526378;28;20053;-75
2023/07/21 13:55:39;;;;;;;1.05;0.80;;;;;;;20.06;47.88;99600.47;10526185;28;20052;-74
2023/07/21 14:00:42;;;;;;;2.60;0.90;;;;;;;19.86;49.42;99601.69;10529066;28;20040;-74
2023/07/21 14:05:44;;;;;;;1.73;0.80;;;;;;;19.77;50.32;99609.44;10491259;28;20053;-74
2023/07/21 14:10:46;;;;;;;1.15;0.90;;;;;;;19.76;51.12;99602.28;10527871;28;20491;-75
2023/07/21 14:15:48;;;;;;;1.80;1.10;;;;;;;19.50;53.68;99605.72;10527392;28;20032;-74
2023/07/21 14:20:50;;;;;;;1.85;0.75;;;;;;;20.02;51.91;99598.81;10526876;28;20509;-75
2023/07/21 14:25:52;;;;;;;4.22;1.10;;;;;;;19.52;53.09;99603.38;10525892;28;20060;-74
2023/07/21 14:30:55;;;;;;;1.38;1.00;;;;;;;19.57;53.46;99606.69;10530730;28;20044;-74
2023/07/21 14:35:57;;;;;;;1.52;1.25;;;;;;;19.66;53.81;99602.88;10532632;28;20044;-74
2023/07/21 14:41:00;;;;;;;1.50;0.90;;;;;;;19.42;54.41;99601.16;10513988;28;20060;-74
2023/07/21 14:46:02;;;;;;;1.25;0.68;;;;;;;19.57;53.95;99606.69;10532316;28;20060;-73
2023/07/21 14:51:06;;;;;;;2.10;0.93;;;;;;;19.70;53.66;99606.53;10514152;28;20049;-73
2023/07/21 14:56:08;;;;;;;0.73;0.73;;;;;;;19.39;54.43;99599.13;10514401;28;20047;-75
2023/07/21 15:01:10;;;;;;;1.77;0.90;;;;;;;19.66;54.43;99602.88;10514589;28;20529;-75
2023/07/21 15:06:12;;;;;;;1.17;0.80;;;;;;;19.57;54.58;99597.53;10531745;28;20066;-75
2023/07/21 15:11:14;;;;;;;1.60;0.80;;;;;;;19.40;54.97;99595.16;10532298;28;20052;-75
2023/07/21 15:16:16;;;;;;;1.27;0.80;;;;;;;18.92;56.66;99602.88;10513601;28;20037;-75
2023/07/21 15:21:19;;;;;;;1.13;0.88;;;;;;;19.01;56.52;99603.47;10530883;28;20041;-75
2023/07/21 15:26:21;;;;;;;1.30;0.90;;;;;;;19.14;56.27;99607.75;10530983;28;20040;-75
2023/07/21 15:31:23;;;;;;;1.67;0.77;;;;;;;19.11;55.97;99602.91;10513732;28;20051;-74
2023/07/21 15:36:25;;;;;;;3.67;0.98;;;;;;;18.89;55.80;99593.25;10516251;28;20044;-75
2023/07/21 15:41:27;;;;;;;2.13;1.00;;;;;;;18.79;56.13;99599.41;10529958;28;20667;-75
2023/07/21 15:46:30;;;;;;;1.60;0.90;;;;;;;19.14;55.93;99609.72;10530213;28;20135;-75
2023/07/21 15:51:32;;;;;;;0.63;0.63;;;;;;;19.00;56.79;99603.84;10529586;28;20052;-75
2023/07/21 15:56:34;;;;;;;1.38;0.85;;;;;;;18.94;57.26;99606.91;10529653;28;20046;-74
2023/07/21 16:01:36;;;;;;;1.38;0.90;;;;;;;18.81;58.29;99596.25;10529007;28;20052;-75
2023/07/21 16:06:38;;;;;;;1.67;0.95;;;;;;;18.62;59.22;99599.75;10529166;28;20395;-75
2023/07/21 16:11:40;;;;;;;1.90;0.90;;;;;;;18.61;59.87;99603.69;10511269;28;20047;-74
2023/07/21 16:16:42;;;;;;;3.80;1.17;;;;;;;18.62;60.40;99603.34;10531295;28;20541;-74
2023/07/21 16:21:45;;;;;;;1.30;0.75;;;;;;;18.48;60.91;99616.88;10528026;28;20044;-75
2023/07/21 16:26:47;;;;;;;0.80;0.80;;;;;;;18.50;61.50;99620.09;10531007;28;20036;-74
2023/07/21 16:31:49;;;;;;;2.13;1.10;;;;;;;18.28;62.52;99613.19;10524523;28;20055;-75
2023/07/21 16:36:54;;;;;;;3.58;1.00;;;;;;;18.29;62.65;99606.47;10538695;28;20049;-74
2023/07/21 16:41:56;;;;;;;2.25;0.90;;;;;;;18.60;61.74;99607.66;10527443;28;20037;-74
2023/07/21 16:46:58;;;;;;;2.10;0.90;;;;;;;18.49;62.22;99607.38;10509715;28;20040;-74
2023/07/21 16:52:00;;;;;;;2.17;0.90;;;;;;;18.22;62.81;99609.09;10512281;28;20540;-74
2023/07/21 16:57:03;;;;;;;1.58;0.90;;;;;;;18.43;62.10;99610.78;10527536;28;20051;-74
2023/07/21 17:02:05;;;;;;;2.13;0.98;;;;;;;18.34;61.89;99611.75;10527865;28;20036;-75
2023/07/21 17:07:07;;;;;;;1.05;0.80;;;;;;;18.31;62.28;99609.69;10526111;28;20056;-75
2023/07/21 17:12:09;;;;;;;0.70;0.70;;;;;;;18.26;62.13;99609.19;10544387;28;20414;-75
2023/07/21 17:17:12;;;;;;;1.65;0.98;;;;;;;18.33;62.08;99603.78;10526730;28;20036;-75
2023/07/21 17:22:14;;;;;;;1.02;0.90;;;;;;;18.21;61.93;99613.00;10527395;28;20048;-75
2023/07/21 17:27:16;;;;;;;2.08;0.90;;;;;;;18.39;61.61;99607.91;10526862;28;20036;-75
2023/07/21 17:32:19;;;;;;;0.75;0.70;;;;;;;18.45;61.87;99614.00;10533617;28;20044;-75
2023/07/21 17:37:21;;;;;;;0.98;0.75;;;;;;;18.54;61.66;99609.88;10533376;28;20067;-75
2023/07/21 17:42:23;;;;;;;0.88;0.80;;;;;;;17.86;63.91;99617.59;10529323;28;20055;-75
2023/07/21 17:47:26;;;;;;;1.90;0.90;;;;;;;17.86;64.15;99612.06;10568178;28;20541;-75
2023/07/21 17:52:28;;;;;;;6.13;0.93;;;;;;;17.78;64.30;99622.97;10550202;28;20060;-75
2023/07/21 17:57:30;;;;;;;1.38;1.10;;;;;;;18.22;63.06;99624.91;10545235;28;20040;-75
2023/07/21 18:02:33;;;;;;;1.10;0.85;;;;;;;17.96;63.33;99623.47;10564881;28;20154;-75
2023/07/21 18:07:35;;;;;;;2.47;0.90;;;;;;;18.17;63.09;99619.63;10551675;28;20410;-75
2023/07/21 18:12:37;;;;;;;2.20;1.00;;;;;;;18.18;62.81;99619.28;10533797;28;20040;-75
2023/07/21 18:17:40;;;;;;;1.52;0.75;;;;;;;17.77;63.61;99626.09;10534214;28;20040;-75
2023/07/21 18:22:43;;;;;;;2.25;0.80;;;;;;;17.87;63.47;99630.31;10532814;28;20059;-75
2023/07/21 18:27:45;;;;;;;2.22;0.80;;;;;;;17.95;63.59;99618.25;10515165;28;20414;-75
2023/07/21 18:32:48;;;;;;;1.08;0.95;;;;;;;18.08;62.98;99628.16;10532778;28;20039;-76
2023/07/21 18:37:50;;;;;;;1.80;0.93;;;;;;;17.81;63.49;99626.19;10532639;28;20036;-74
2023/07/21 18:42:53;;;;;;;2.38;1.40;;;;;;;17.54;64.83;99622.25;10497525;28;20048;-74
2023/07/21 18:47:55;;;;;;;1.98;1.15;;;;;;;17.67;64.06;99619.06;10532500;28;20052;-76
2023/07/21 18:52:58;;;;;;;1.58;0.95;;;;;;;17.78;63.75;99622.97;10532130;28;20048;-75
2023/07/21 18:58:01;;;;;;;1.30;0.80;;;;;;;17.55;63.73;99615.53;10531495;28;20052;-75
2023/07/21 19:03:04;;;;;;;0.90;0.60;;;;;;;17.52;63.35;99622.56;10532011;28;20041;-75
2023/07/21 19:08:06;;;;;;;1.50;0.80;;;;;;;17.32;64.14;99624.38;10531539;28;20040;-75
2023/07/21 19:13:08;;;;;;;1.98;0.98;;;;;;;17.50;63.46;99630.44;10513254;28;20048;-75
2023/07/21 19:18:11;;;;;;;2.70;1.05;;;;;;;17.61;63.46;99626.03;10507931;28;20055;-75
2023/07/21 19:23:13;;;;;;;2.08;0.80;;;;;;;17.70;62.94;99625.88;10530800;28;20045;-75
2023/07/21 19:28:15;;;;;;;1.30;0.77;;;;;;;17.56;63.75;99631.03;10514913;28;20052;-75
2023/07/21 19:33:17;;;;;;;1.85;0.70;;;;;;;17.77;63.12;99626.91;10512850;28;20051;-75
2023/07/21 19:38:20;;;;;;;0.50;0.50;;;;;;;17.68;64.02;99633.75;10530795;28;20052;-75
2023/07/21 19:43:22;;;;;;;1.38;0.70;;;;;;;17.74;63.99;99633.16;10532349;28;20044;-75
2023/07/21 19:48:24;;;;;;;1.35;0.80;;;;;;;17.66;64.94;99636.84;10530790;28;20571;-75
2023/07/21 19:53:27;;;;;;;0.40;0.40;;;;;;;17.45;65.49;99633.47;10530101;28;20053;-75
2023/07/21 19:58:29;;;;;;;0.90;0.70;;;;;;;17.49;66.27;99632.41;10529484;28;20048;-74
2023/07/21 20:03:31;;;;;;;1.65;0.68;;;;;;;17.73;66.50;99628.78;10529736;28;20411;-75
2023/07/21 20:08:34;;;;;;;0.95;0.50;;;;;;;17.77;66.75;99629.69;10528818;28;20064;-75
2023/07/21 20:13:36;;;;;;;1.15;0.60;;;;;;;17.41;68.51;99629.78;10532231;28;20537;-75
2023/07/21 20:18:38;;;;;;;1.08;0.50;;;;;;;17.51;68.75;99628.47;10528766;28;20043;-75
2023/07/21 20:23:40;;;;;;;0.40;0.40;;;;;;;17.58;69.51;99623.97;10528409;28;20063;-75
2023/07/21 20:28:42;;;;;;;0.90;0.50;;;;;;;17.50;70.10;99633.22;10531252;28;20055;-74
2023/07/21 20:33:44;;;;;;;0.40;0.30;;;;;;;17.11;72.26;99643.94;10510199;28;20494;-75
2023/07/21 20:38:47;;;;;;;2.67;0.45;;;;;;;17.19;72.41;99636.69;10527829;28;20045;-75
2023/07/21 20:43:49;;;;;;;0.73;0.32;;;;;;;17.37;71.73;99631.66;10527640;28;20055;-75
2023/07/21 20:48:51;;;;;;;0.55;0.40;;;;;;;17.40;71.67;99636.50;10527539;28;20525;-75
2023/07/21 20:53:53;;;;;;;0.30;0.30;;;;;;;17.56;70.75;99636.56;10460180;28;20056;-74
2023/07/21 20:58:55;;;;;;;0.77;0.45;;;;;;;17.71;70.35;99630.31;10444637;28;20178;-75
2023/07/21 21:03:58;;;;;;;0.55;0.30;;;;;;;17.39;71.72;99632.13;10445688;28;20053;-75
2023/07/21 21:09:00;;;;;;;1.15;0.47;;;;;;;17.30;71.95;99629.47;10444369;28;20504;-74
2023/07/21 21:14:02;;;;;;;0.70;0.52;;;;;;;17.18;72.40;99632.25;10444097;28;20038;-75
2023/07/21 21:19:04;;;;;;;0.30;0.30;;;;;;;17.12;73.02;99631.69;10444501;28;20064;-75
2023/07/21 21:24:06;;;;;;;1.70;0.55;;;;;;;17.14;72.79;99632.16;10446703;28;20037;-75
2023/07/21 21:29:08;;;;;;;1.92;0.50;;;;;;;17.16;73.11;99629.03;10443386;28;20033;-75
2023/07/21 21:34:10;;;;;;;0.47;0.30;;;;;;;17.04;73.41;99649.28;10442029;28;20401;-75
2023/07/21 21:39:12;;;;;;;0.15;0.13;;;;;;;16.90;73.29;99648.84;10448322;28;20048;-75
2023/07/21 21:44:18;;;;;;;1.33;0.70;;;;;;;17.03;72.38;99646.88;10451760;28;20049;-75
2023/07/21 21:49:20;;;;;;;0.68;0.50;;;;;;;16.92;72.18;99651.25;10450443;28;20037;-74
2023/07/21 21:54:22;;;;;;;0.82;0.60;;;;;;;16.86;72.15;99654.28;10509459;28;20055;-75
2023/07/21 21:59:24;;;;;;;1.40;0.63;;;;;;;16.82;72.16;99649.75;10534979;28;20499;-75
2023/07/21 22:04:26;;;;;;;1.80;0.50;;;;;;;16.79;71.76;99648.47;10533857;28;20049;-75
2023/07/21 22:09:29;;;;;;;0.68;0.45;;;;;;;16.97;70.77;99662.91;10515788;28;20507;-75
2023/07/21 22:14:31;;;;;;;0.98;0.90;;;;;;;16.91;71.06;99649.63;10537496;28;20051;-75
2023/07/21 22:19:33;;;;;;;2.65;0.50;;;;;;;16.88;70.96;99651.94;10533457;28;20123;-75
2023/07/21 22:24:35;;;;;;;1.38;0.30;;;;;;;16.96;70.81;99654.94;10533298;28;20048;-75
2023/07/21 22:29:37;;;;;;;1.13;0.55;;;;;;;17.20;69.61;99646.59;10532989;28;20048;-75
2023/07/21 22:34:40;;;;;;;0.70;0.40;;;;;;;17.00;69.87;99651.13;10518036;28;20051;-75
2023/07/21 22:39:42;;;;;;;1.17;0.85;;;;;;;16.95;70.19;99645.00;10515671;28;20044;-75
2023/07/21 22:44:44;;;;;;;1.75;0.73;;;;;;;16.88;70.89;99659.47;10514236;28;20125;-75
2023/07/21 22:49:46;;;;;;;0.70;0.40;;;;;;;16.84;71.04;99650.22;10531183;28;20059;-75
2023/07/21 22:54:49;;;;;;;0.73;0.63;;;;;;;16.68;71.85;99650.13;10559938;28;20048;-74
2023/07/21 22:59:53;;;;;;;2.92;0.70;;;;;;;16.64;72.03;99657.44;10574408;28;20054;-75
2023/07/21 23:04:55;;;;;;;1.52;0.40;;;;;;;16.59;72.34;99657.69;10573584;28;20048;-75
2023/07/21 23:09:57;;;;;;;3.75;0.70;;;;;;;16.69;72.37;99653.69;10573304;28;20043;-74
2023/07/21 23:14:59;;;;;;;2.75;0.60;;;;;;;16.62;72.84;99664.50;10555391;28;20052;-74
2023/07/21 23:20:03;;;;;;;1.73;1.05;;;;;;;16.58;73.93;99658.84;10555045;28;20040;-74
2023/07/21 23:25:06;;;;;;;1.05;0.50;;;;;;;16.67;73.39;99661.53;10546159;28;20078;-74
2023/07/21 23:30:11;;;;;;;0.77;0.50;;;;;;;16.88;73.30;99656.69;10530794;28;20071;-74